CPX362 Details

Departure: Portland International Airport (KPDX)
Arrival: Seattle-Tacoma International Airport (KSEA)
Route: COUGA KRIEG HAWKZ7


Current Weather Information
KPDX 251053Z 19008KT 9SM BKN036 OVC044 11/07 A3001 RMK AO2 SLP162 T01110072
KSEA 251053Z 20007KT 10SM FEW016 OVC036 12/07 A2998 RMK AO2 SLP159 T01170072